Alton, Maine
Current Conditions -  °F | °C
As of 7:53 PM on Tuesday 27 Jan 2015 (Local Time) from KBGR Reporting Station
Light Snow Light Snow  
Wind Chill: -24°   Ceiling: 1400
Heat Index: -12°   Visibility: 0.75mi
Dew Point: -14°   Wind: 24mph
Humidity: 84%   Direction: 360°N
Pressure: 29.6"   Gusts: 35mph
Location:  45.0236°N, 68.7394°W
Report Text: KBGR 280053Z 36021G30KT 3/4SM R15/P6000FT -SN BLSN BR VV014 M12/M14 A2960 RMK AO2 PK WND 36030/0052 SFC VIS 1 SLP030 P0000 T11221144
Loading
Personal Weather Stations






























Interactive Weather Map New forecast layout! Learn more

10-Day Weather Forecast

Advertisements
Track Severe Weather on mobile